Time;durP1;ratioP1;P1;durP2;ratioP2;P2;SDS_P1;SDS_P2;PMS_P1;PMS_P2;Temp;Humidity;BMP_temperature;BMP_pressure;BME280_temperature;BME280_humidity;BME280_pressure;Samples;Min_cycle;Max_cycle;Signal;HPM_P1;HPM_P2
2023/09/21 00:07:40;;;;;;;0.77;0.55;;;;;;;18.64;47.10;99185.91;21349085;27;20545;-84
2023/09/21 00:17:46;;;;;;;1.08;0.55;;;;;;;18.38;47.61;99177.78;21342219;27;20315;-82
2023/09/21 00:27:49;;;;;;;1.17;0.65;;;;;;;18.47;47.12;99170.44;21327721;27;20597;-85
2023/09/21 00:37:50;;;;;;;2.75;0.82;;;;;;;18.69;46.27;99153.31;21287416;27;20229;-81
2023/09/21 00:47:54;;;;;;;2.85;0.90;;;;;;;18.65;46.66;99138.28;21232176;27;20231;-81
2023/09/21 00:57:59;;;;;;;1.90;0.80;;;;;;;18.63;46.46;99115.88;21249168;27;20245;-81
2023/09/21 01:08:05;;;;;;;1.80;0.75;;;;;;;18.55;46.35;99108.56;21246046;27;20253;-86
2023/09/21 01:18:09;;;;;;;2.45;0.93;;;;;;;18.72;45.85;99090.59;21229606;27;20621;-82
2023/09/21 01:28:16;;;;;;;1.35;0.90;;;;;;;18.32;46.16;99089.09;21223071;27;20198;-86
2023/09/21 01:38:19;;;;;;;0.80;0.63;;;;;;;18.11;46.59;99072.09;21284097;27;20228;-85
2023/09/21 01:48:22;;;;;;;1.15;1.00;;;;;;;18.69;44.91;99062.94;21361474;27;20208;-85
2023/09/21 01:58:24;;;;;;;0.68;0.50;;;;;;;18.22;46.07;99038.69;21351826;27;20680;-81
2023/09/21 02:08:27;;;;;;;2.08;0.80;;;;;;;18.30;45.26;99037.47;21332900;27;20218;-80
2023/09/21 02:18:30;;;;;;;2.40;1.15;;;;;;;18.38;45.73;99019.09;21331038;27;20216;-86
2023/09/21 02:28:33;;;;;;;0.98;0.88;;;;;;;18.33;45.06;99019.53;21345424;27;20688;-81
2023/09/21 02:38:35;;;;;;;1.40;0.43;;;;;;;18.45;44.78;99007.66;21337412;27;20226;-81
2023/09/21 02:48:38;;;;;;;1.73;0.82;;;;;;;18.07;45.01;98997.25;21353280;27;20216;-83
2023/09/21 02:58:40;;;;;;;2.17;0.50;;;;;;;18.42;44.16;98985.72;21340305;27;20223;-81
2023/09/21 03:08:45;;;;;;;1.60;0.95;;;;;;;18.00;45.27;98974.53;21336302;27;20192;-86
2023/09/21 03:18:47;;;;;;;1.45;0.82;;;;;;;18.24;45.11;98974.41;21345725;27;20208;-81
2023/09/21 03:28:50;;;;;;;1.00;0.77;;;;;;;17.82;45.97;98958.28;21344822;27;20192;-83
2023/09/21 03:38:54;;;;;;;1.40;0.70;;;;;;;18.05;45.58;98942.78;21361375;27;20228;-87
2023/09/21 03:48:58;;;;;;;2.45;0.70;;;;;;;18.00;46.10;98934.66;21356232;27;20516;-83
2023/09/21 03:59:00;;;;;;;1.23;0.73;;;;;;;18.07;46.16;98911.84;21338454;27;20239;-79
2023/09/21 04:09:06;;;;;;;1.25;0.60;;;;;;;17.79;47.44;98907.91;21321782;27;20207;-80
2023/09/21 04:19:10;;;;;;;2.45;0.98;;;;;;;17.65;47.45;98890.06;21351683;27;20212;-81
2023/09/21 04:29:15;;;;;;;2.85;0.85;;;;;;;17.78;47.57;98877.81;21338450;27;20219;-79
2023/09/21 04:39:18;;;;;;;1.90;0.90;;;;;;;17.62;47.52;98880.31;21343538;27;20224;-80
2023/09/21 04:49:21;;;;;;;2.67;0.60;;;;;;;17.35;48.67;98873.50;21365095;27;20264;-85
2023/09/21 04:59:23;;;;;;;2.85;0.85;;;;;;;17.89;47.74;98855.81;21339685;27;20221;-82
2023/09/21 05:09:26;;;;;;;2.42;1.00;;;;;;;17.72;47.49;98841.66;21329192;27;20253;-82
2023/09/21 05:19:30;;;;;;;2.00;0.90;;;;;;;17.25;48.35;98854.44;21331703;27;20226;-80
2023/09/21 05:29:33;;;;;;;1.55;1.00;;;;;;;17.53;47.89;98865.75;21354319;27;20196;-80
2023/09/21 05:39:35;;;;;;;2.42;1.27;;;;;;;18.02;47.38;98861.06;21324986;27;20223;-79
2023/09/21 05:49:39;;;;;;;3.78;1.85;;;;;;;18.04;47.51;98872.84;21321904;27;20216;-80
2023/09/21 05:59:41;;;;;;;3.33;1.40;;;;;;;18.26;47.02;98882.88;21314280;27;20268;-80
2023/09/21 06:09:44;;;;;;;5.22;1.45;;;;;;;18.15;47.90;98902.06;21328523;27;20193;-79
2023/09/21 06:19:46;;;;;;;2.10;1.20;;;;;;;17.77;49.35;98898.16;21334411;27;20216;-78
2023/09/21 06:29:49;;;;;;;1.45;1.00;;;;;;;17.95;49.01;98873.28;21342174;27;20193;-79
2023/09/21 06:39:51;;;;;;;2.75;1.13;;;;;;;17.97;49.28;98873.69;21340057;27;20283;-87
2023/09/21 06:49:54;;;;;;;3.00;0.98;;;;;;;17.71;50.88;98872.16;21324099;27;20239;-86
2023/09/21 06:59:56;;;;;;;3.63;1.08;;;;;;;17.64;51.01;98852.28;21316867;27;20223;-79
2023/09/21 07:10:00;;;;;;;1.60;0.60;;;;;;;18.03;50.50;98845.63;21327365;27;20211;-82
2023/09/21 07:20:04;;;;;;;3.40;1.20;;;;;;;18.05;50.79;98843.16;21325478;27;20213;-83
2023/09/21 07:30:08;;;;;;;2.53;1.08;;;;;;;18.29;50.40;98833.63;21319787;27;20249;-86
2023/09/21 07:40:13;;;;;;;3.05;1.15;;;;;;;18.74;50.14;98836.53;21320584;27;20234;-80
2023/09/21 07:50:18;;;;;;;2.47;0.80;;;;;;;18.92;49.74;98845.75;21314410;27;20208;-79
2023/09/21 08:00:20;;;;;;;3.20;1.20;;;;;;;19.54;49.21;98833.28;21343095;27;20223;-82
2023/09/21 08:10:23;;;;;;;3.70;0.75;;;;;;;19.32;49.35;98856.38;21346021;27;20286;-79
2023/09/21 08:20:25;;;;;;;3.42;1.08;;;;;;;19.62;48.84;98858.44;21373548;27;20220;-87
2023/09/21 08:30:28;;;;;;;4.22;1.27;;;;;;;19.73;49.13;98858.34;21367534;27;20193;-82
2023/09/21 08:40:31;;;;;;;5.38;1.10;;;;;;;19.81;49.27;98859.03;21356837;27;20231;-83
2023/09/21 08:50:35;;;;;;;1.55;0.82;;;;;;;19.77;49.42;98861.94;21352536;27;20220;-86
2023/09/21 09:00:37;;;;;;;4.00;1.33;;;;;;;20.13;48.39;98855.78;21358154;27;20218;-82
2023/09/21 09:10:42;;;;;;;2.60;0.90;;;;;;;20.74;46.53;98860.16;21346515;27;20200;-80
2023/09/21 09:20:45;;;;;;;1.50;0.85;;;;;;;20.68;46.73;98866.78;21349541;27;20306;-81
2023/09/21 09:30:48;;;;;;;1.45;0.93;;;;;;;20.81;46.15;98876.38;21352327;27;20256;-79
2023/09/21 09:40:51;;;;;;;1.25;0.90;;;;;;;21.15;46.38;98867.63;21348496;27;20315;-82
2023/09/21 09:50:55;;;;;;;4.25;1.08;;;;;;;21.09;46.37;98872.22;21729553;22;20560;-82
2023/09/21 10:00:57;;;;;;;1.73;0.77;;;;;;;21.02;46.09;98872.34;20981797;28;20335;-81
2023/09/21 10:11:01;;;;;;;1.67;0.90;;;;;;;21.39;44.80;98863.50;21010109;28;20490;-79
2023/09/21 10:21:23;;;;;;;1.20;0.68;;;;;;;20.91;46.08;98869.69;20989932;28;20226;-86
2023/09/21 10:31:28;;;;;;;1.70;0.82;;;;;;;21.09;45.84;98861.56;21006508;28;20199;-83
2023/09/21 10:41:30;;;;;;;1.52;0.60;;;;;;;20.88;46.60;98855.44;21009549;28;20230;-83
2023/09/21 10:51:34;;;;;;;0.80;0.52;;;;;;;21.37;45.86;98839.44;20972685;28;20228;-84
2023/09/21 11:01:36;;;;;;;3.42;0.90;;;;;;;21.94;45.50;98821.09;20952472;28;20330;-87
2023/09/21 11:11:39;;;;;;;2.80;0.95;;;;;;;21.03;47.37;98816.75;20938194;28;20213;-85
2023/09/21 11:21:42;;;;;;;3.80;0.80;;;;;;;21.38;46.47;98815.28;20926605;28;20215;-80
2023/09/21 11:31:49;;;;;;;3.58;1.05;;;;;;;21.41;46.87;98805.84;20960802;28;20203;-80
2023/09/21 11:41:52;;;;;;;1.27;1.02;;;;;;;21.37;46.44;98805.91;20958722;28;20619;-81
2023/09/21 11:51:58;;;;;;;4.15;1.30;;;;;;;22.25;46.17;98790.88;20945670;28;20238;-84
2023/09/21 12:02:03;;;;;;;2.33;0.85;;;;;;;21.48;46.85;98793.41;20944661;28;20318;-81
2023/09/21 12:12:07;;;;;;;3.42;0.90;;;;;;;21.04;47.30;98778.34;20944774;28;20207;-81
2023/09/21 12:22:11;;;;;;;2.15;1.10;;;;;;;20.98;47.82;98782.94;20949004;28;20233;-82
2023/09/21 12:32:16;;;;;;;1.52;1.00;;;;;;;20.72;48.18;98765.44;20926326;28;20204;-83
2023/09/21 12:42:19;;;;;;;2.88;1.10;;;;;;;21.07;48.57;98743.13;20929105;28;20219;-87
2023/09/21 12:52:22;;;;;;;2.38;1.35;;;;;;;21.14;48.10;98733.59;20952175;28;21437;-83
2023/09/21 13:02:25;;;;;;;4.20;1.70;;;;;;;20.93;48.18;98729.09;20950422;28;20227;-82
2023/09/21 13:12:28;;;;;;;3.67;1.40;;;;;;;21.61;47.70;98705.63;20949520;28;20303;-81
2023/09/21 13:22:30;;;;;;;1.70;1.10;;;;;;;22.07;46.71;98688.19;20941930;28;20226;-86
2023/09/21 13:32:33;;;;;;;2.25;0.82;;;;;;;21.42;49.08;98673.75;20964172;28;20398;-84
2023/09/21 13:42:35;;;;;;;1.55;1.08;;;;;;;21.15;48.65;98650.22;20944267;28;20215;-80
2023/09/21 13:52:38;;;;;;;4.72;1.08;;;;;;;21.78;46.47;98618.50;20934710;28;20643;-81
2023/09/21 14:02:42;;;;;;;5.32;1.80;;;;;;;21.57;47.94;98619.00;20952066;28;20215;-85
2023/09/21 14:12:49;;;;;;;3.40;0.98;;;;;;;20.93;50.57;98615.53;20956372;28;20282;-80
2023/09/21 14:22:51;;;;;;;4.40;1.00;;;;;;;20.28;52.47;98602.94;20955403;28;20224;-78
2023/09/21 14:32:54;;;;;;;1.77;1.17;;;;;;;20.49;52.26;98576.81;20933762;28;20530;-78
2023/09/21 14:42:56;;;;;;;2.70;1.02;;;;;;;21.22;51.16;98564.25;20957613;28;20218;-83
2023/09/21 14:53:00;;;;;;;7.45;3.65;;;;;;;21.00;51.51;98568.81;20917967;28;20231;-79
2023/09/21 15:03:01;;;;;;;3.50;1.52;;;;;;;21.19;51.98;98547.97;20926118;28;20228;-79
2023/09/21 15:13:05;;;;;;;3.88;1.92;;;;;;;21.06;52.27;98539.25;20932856;28;20273;-79
2023/09/21 15:23:07;;;;;;;3.65;1.75;;;;;;;21.23;52.29;98525.81;20933899;28;20218;-79
2023/09/21 15:33:10;;;;;;;6.03;1.67;;;;;;;21.09;58.40;98494.66;20923283;28;20192;-80
2023/09/21 15:43:12;;;;;;;2.72;1.90;;;;;;;21.04;57.36;98503.78;20924867;28;20245;-79
2023/09/21 15:53:15;;;;;;;6.72;1.52;;;;;;;20.63;59.02;98568.00;20925959;28;20235;-80
2023/09/21 16:03:17;;;;;;;7.03;1.98;;;;;;;17.04;74.54;98600.28;20930395;28;20313;-77
2023/09/21 16:13:20;;;;;;;3.75;1.02;;;;;;;15.64;77.68;98620.91;20927537;28;20261;-77
2023/09/21 16:23:24;;;;;;;1.27;0.80;;;;;;;16.46;75.48;98610.28;20941046;28;20474;-76
2023/09/21 16:33:27;;;;;;;1.48;0.70;;;;;;;16.79;73.44;98565.53;20937292;28;20200;-77
2023/09/21 16:43:29;;;;;;;0.73;0.70;;;;;;;16.44;75.75;98567.28;20947349;28;20217;-76
2023/09/21 16:53:32;;;;;;;3.78;0.98;;;;;;;16.54;75.94;98559.16;20942185;28;20227;-77
2023/09/21 17:03:34;;;;;;;3.50;1.92;;;;;;;15.57;78.91;98552.06;20941308;28;20235;-77
2023/09/21 17:13:37;;;;;;;2.67;1.42;;;;;;;15.93;78.65;98556.50;20939161;28;20204;-77
2023/09/21 17:23:39;;;;;;;2.40;1.23;;;;;;;16.27;76.25;98551.13;20934850;28;20219;-77
2023/09/21 17:33:42;;;;;;;3.33;1.27;;;;;;;16.80;73.89;98539.56;20943481;28;20204;-79
2023/09/21 17:43:44;;;;;;;4.53;1.65;;;;;;;16.42;76.35;98535.66;20941217;28;20227;-88
2023/09/21 17:53:49;;;;;;;2.13;1.27;;;;;;;16.44;75.52;98544.59;20939844;28;20262;-78
2023/09/21 18:03:51;;;;;;;2.80;1.38;;;;;;;17.03;74.80;98578.78;20934710;28;20224;-80
2023/09/21 18:13:54;;;;;;;1.73;1.50;;;;;;;16.94;72.06;98625.94;20948060;28;20639;-80
2023/09/21 18:23:56;;;;;;;2.17;1.35;;;;;;;16.93;72.80;98667.75;20943745;28;20232;-80
2023/09/21 18:33:59;;;;;;;1.90;1.23;;;;;;;16.40;74.07;98680.03;20949663;28;20294;-87
2023/09/21 18:44:02;;;;;;;3.55;1.48;;;;;;;16.13;75.13;98681.69;20941001;28;20223;-79
2023/09/21 18:54:06;;;;;;;4.30;1.00;;;;;;;16.11;75.44;98667.91;20926512;28;20234;-78
2023/09/21 19:04:08;;;;;;;4.47;1.10;;;;;;;16.27;74.01;98664.66;20933990;28;20224;-82
2023/09/21 19:14:11;;;;;;;2.05;0.70;;;;;;;16.24;73.79;98656.19;20932485;28;20228;-80
2023/09/21 19:24:13;;;;;;;1.55;0.57;;;;;;;16.03;74.79;98672.00;20926587;28;20219;-84
2023/09/21 19:34:16;;;;;;;3.40;0.70;;;;;;;15.88;75.75;98680.91;20914376;28;20206;-82
2023/09/21 19:44:18;;;;;;;3.28;0.70;;;;;;;15.59;76.21;98700.69;20913185;28;20508;-80
2023/09/21 19:54:22;;;;;;;1.75;0.50;;;;;;;16.12;73.76;98720.63;20913444;28;20555;-78
2023/09/21 20:04:23;;;;;;;1.02;0.93;;;;;;;15.56;74.62;98727.03;20914147;28;20220;-88
2023/09/21 20:14:26;;;;;;;2.67;0.73;;;;;;;16.15;72.57;98725.50;20918947;28;20404;-80
2023/09/21 20:24:28;;;;;;;1.75;0.73;;;;;;;15.63;75.45;98769.56;20912990;28;20724;-80
2023/09/21 20:34:33;;;;;;;1.38;0.60;;;;;;;15.49;74.99;98766.69;20911918;28;20480;-78
2023/09/21 20:44:35;;;;;;;1.90;0.55;;;;;;;15.46;74.45;98767.50;20910794;28;20709;-85
2023/09/21 20:54:40;;;;;;;0.63;0.43;;;;;;;15.59;72.95;98763.06;20914737;28;20231;-82
2023/09/21 21:04:42;;;;;;;0.93;0.30;;;;;;;15.22;74.27;98754.03;20923474;28;20229;-80
2023/09/21 21:14:45;;;;;;;0.73;0.55;;;;;;;14.92;74.87;98760.78;20928932;28;20208;-82
2023/09/21 21:24:47;;;;;;;0.98;0.43;;;;;;;14.72;75.05;98782.09;20924835;28;20564;-82
2023/09/21 21:34:50;;;;;;;0.73;0.55;;;;;;;14.77;75.31;98776.06;20948089;28;20195;-85
2023/09/21 21:44:52;;;;;;;2.45;0.68;;;;;;;14.52;74.04;98792.06;20945080;28;20211;-79
2023/09/21 21:54:55;;;;;;;1.58;0.80;;;;;;;14.59;74.38;98786.44;20930522;28;20247;-87
2023/09/21 22:04:57;;;;;;;1.13;0.70;;;;;;;14.81;71.64;98776.88;20941155;28;20219;-86
2023/09/21 22:15:00;;;;;;;1.38;0.70;;;;;;;14.11;73.75;98772.28;20934435;28;20584;-89
2023/09/21 22:25:04;;;;;;;1.52;0.60;;;;;;;14.45;72.55;98789.16;20926424;28;20306;-86
2023/09/21 22:35:09;;;;;;;1.67;0.65;;;;;;;14.09;72.62;98788.03;20932388;28;20222;-88
2023/09/21 22:45:13;;;;;;;1.67;0.50;;;;;;;14.54;70.72;98784.81;20931008;28;20619;-79
2023/09/21 22:55:17;;;;;;;1.58;0.47;;;;;;;14.15;72.02;98769.50;20918838;28;20231;-78
2023/09/21 23:05:19;;;;;;;2.78;0.90;;;;;;;14.50;71.98;98754.84;20908759;28;20224;-79
2023/09/21 23:15:22;;;;;;;1.05;0.60;;;;;;;13.97;72.51;98772.16;20917115;28;20287;-89
2023/09/21 23:25:24;;;;;;;0.50;0.50;;;;;;;14.63;69.83;98761.81;20921192;28;20231;-79
2023/09/21 23:35:27;;;;;;;1.98;0.40;;;;;;;14.30;71.03;98774.91;20919841;28;20200;-88
2023/09/21 23:45:28;;;;;;;1.65;0.40;;;;;;;14.19;71.51;98796.63;20913651;28;20215;-80
2023/09/21 23:55:33;;;;;;;0.95;0.47;;;;;;;14.53;71.59;98788.03;20925854;28;20502;-79
